createdAt,value
2018-01-29T00:00:32.852Z,46.90
2018-01-29T00:01:08.103Z,45.50
2018-01-29T00:01:43.808Z,50.60
2018-01-29T00:02:19.205Z,46.70
2018-01-29T00:02:54.533Z,45.30
2018-01-29T00:03:29.931Z,44.80
2018-01-29T00:04:05.561Z,46.20
2018-01-29T00:04:40.965Z,46.00
2018-01-29T00:05:16.510Z,43.80
2018-01-29T00:05:51.809Z,41.70
2018-01-29T00:06:27.510Z,44.50
2018-01-29T00:07:03.006Z,43.00
2018-01-29T00:07:38.209Z,44.80
2018-01-29T00:08:13.642Z,44.20
2018-01-29T00:08:48.936Z,44.60
2018-01-29T00:09:24.366Z,45.90
2018-01-29T00:09:59.660Z,43.30
2018-01-29T00:10:34.966Z,43.40
2018-01-29T00:11:10.456Z,44.10
2018-01-29T00:11:45.854Z,42.00
2018-01-29T00:12:21.064Z,44.20
2018-01-29T00:12:56.362Z,41.40
2018-01-29T00:13:31.700Z,44.40
2018-01-29T00:14:07.100Z,44.00
2018-01-29T00:14:42.645Z,42.20
2018-01-29T00:15:18.341Z,43.30
2018-01-29T00:15:53.642Z,47.60
2018-01-29T00:16:29.053Z,47.70
2018-01-29T00:17:04.250Z,44.60
2018-01-29T00:17:39.467Z,49.30
2018-01-29T00:18:14.949Z,50.30
2018-01-29T00:18:50.256Z,46.80
2018-01-29T00:19:25.581Z,47.40
2018-01-29T00:20:00.800Z,48.50
2018-01-29T00:20:36.301Z,45.60
2018-01-29T00:21:11.807Z,47.40
2018-01-29T00:21:47.409Z,47.10
2018-01-29T00:22:22.709Z,51.50
2018-01-29T00:22:58.338Z,49.30
2018-01-29T00:23:33.530Z,44.70
2018-01-29T00:24:08.541Z,42.30
2018-01-29T00:24:44.039Z,41.70
2018-01-29T00:25:19.368Z,44.30
2018-01-29T00:25:54.480Z,47.10
2018-01-29T00:26:29.777Z,49.60
2018-01-29T00:27:05.184Z,51.10
2018-01-29T00:27:40.484Z,47.90
2018-01-29T00:28:15.915Z,46.80
2018-01-29T00:28:51.122Z,46.80
2018-01-29T00:29:26.824Z,47.50
2018-01-29T00:30:02.229Z,45.80
2018-01-29T00:30:39.655Z,46.00
2018-01-29T00:31:14.859Z,42.40
2018-01-29T00:31:50.054Z,45.10
2018-01-29T00:32:25.255Z,45.60
2018-01-29T00:33:00.460Z,42.90
2018-01-29T00:33:35.583Z,45.20
2018-01-29T00:34:10.880Z,47.30
2018-01-29T00:34:45.986Z,42.40
2018-01-29T00:35:21.282Z,45.30
2018-01-29T00:35:56.611Z,43.10
2018-01-29T00:36:32.111Z,43.00
2018-01-29T00:37:07.511Z,43.60
2018-01-29T00:37:43.008Z,43.70
2018-01-29T00:38:18.310Z,40.40
2018-01-29T00:38:53.835Z,41.60
2018-01-29T00:39:29.339Z,40.70
2018-01-29T00:40:04.341Z,41.20
2018-01-29T00:40:39.848Z,41.70
2018-01-29T00:41:15.381Z,48.30
2018-01-29T00:41:50.883Z,44.10
2018-01-29T00:42:26.187Z,44.80
2018-01-29T00:43:01.680Z,51.50
2018-01-29T00:43:37.280Z,47.10
2018-01-29T00:44:12.582Z,41.10
2018-01-29T00:44:47.781Z,41.00
2018-01-29T00:45:23.086Z,44.20
2018-01-29T00:45:58.510Z,45.90
2018-01-29T00:46:33.852Z,41.30
2018-01-29T00:47:08.953Z,42.00
2018-01-29T00:47:43.952Z,43.60
2018-01-29T00:48:19.200Z,40.10
2018-01-29T00:48:54.407Z,39.20
2018-01-29T00:49:29.814Z,44.60
2018-01-29T00:50:05.112Z,42.90
2018-01-29T00:50:40.410Z,41.20
2018-01-29T00:51:15.606Z,41.40
2018-01-29T00:51:50.944Z,41.80
2018-01-29T00:52:26.140Z,41.30
2018-01-29T00:53:01.439Z,42.60
2018-01-29T00:53:36.868Z,41.30
2018-01-29T00:54:12.464Z,44.70
2018-01-29T00:54:47.974Z,40.60
2018-01-29T00:55:23.375Z,38.90
2018-01-29T00:55:58.873Z,37.90
2018-01-29T00:56:34.277Z,42.50
2018-01-29T00:57:09.507Z,40.70
2018-01-29T00:57:45.018Z,38.70
2018-01-29T00:58:20.414Z,40.10
2018-01-29T00:58:55.656Z,42.80
2018-01-29T00:59:31.046Z,39.00
2018-01-29T01:00:06.544Z,34.30
2018-01-29T01:00:41.942Z,36.60
2018-01-29T01:01:17.150Z,37.80
2018-01-29T01:01:52.653Z,37.10
2018-01-29T01:02:30.478Z,35.30
2018-01-29T01:03:05.785Z,38.00
2018-01-29T01:03:40.787Z,39.30
2018-01-29T01:04:16.188Z,36.60
2018-01-29T01:04:51.709Z,38.10
2018-01-29T01:05:27.015Z,32.60
2018-01-29T01:06:02.213Z,34.70
2018-01-29T01:06:37.509Z,37.70
2018-01-29T01:07:13.214Z,33.40
2018-01-29T01:07:48.746Z,33.30
2018-01-29T01:08:23.945Z,39.70
2018-01-29T01:08:59.362Z,42.60
2018-01-29T01:09:34.755Z,37.70
2018-01-29T01:10:09.964Z,36.60
2018-01-29T01:10:45.354Z,36.80
2018-01-29T01:11:20.855Z,34.40
2018-01-29T01:11:56.252Z,36.40
2018-01-29T01:12:31.566Z,33.90
2018-01-29T01:13:06.797Z,35.10
2018-01-29T01:13:42.420Z,35.80
2018-01-29T01:14:17.918Z,34.40
2018-01-29T01:14:53.517Z,33.40
2018-01-29T01:15:29.121Z,32.40
2018-01-29T01:16:04.315Z,33.50
2018-01-29T01:16:39.513Z,32.90
2018-01-29T01:17:15.012Z,35.30
2018-01-29T01:17:50.313Z,34.70
2018-01-29T01:18:25.850Z,35.20
2018-01-29T01:19:01.075Z,33.80
2018-01-29T01:19:36.278Z,32.80
2018-01-29T01:20:11.475Z,33.60
2018-01-29T01:20:46.878Z,33.80
2018-01-29T01:21:22.176Z,35.40
2018-01-29T01:21:57.372Z,33.30
2018-01-29T01:22:32.776Z,30.30
2018-01-29T01:23:07.983Z,35.80
2018-01-29T01:23:43.605Z,35.90
2018-01-29T01:24:18.633Z,33.80
2018-01-29T01:24:54.132Z,30.30
2018-01-29T01:25:30.037Z,30.60
2018-01-29T01:26:05.530Z,30.60
2018-01-29T01:26:40.736Z,33.40
2018-01-29T01:27:15.926Z,35.20
2018-01-29T01:27:51.327Z,35.10
2018-01-29T01:28:26.623Z,34.40
2018-01-29T01:29:01.953Z,33.40
2018-01-29T01:29:37.257Z,33.30
2018-01-29T01:30:12.752Z,33.20
2018-01-29T01:30:48.867Z,34.00
2018-01-29T01:31:24.259Z,34.50
2018-01-29T01:31:59.466Z,33.20
2018-01-29T01:32:34.967Z,31.60
2018-01-29T01:33:10.275Z,30.10
2018-01-29T01:33:46.289Z,33.80
2018-01-29T01:34:21.792Z,31.50
2018-01-29T01:34:57.102Z,30.30
2018-01-29T01:35:32.807Z,30.50
2018-01-29T01:36:08.400Z,32.40
2018-01-29T01:36:43.994Z,28.70
2018-01-29T01:37:19.099Z,27.80
2018-01-29T01:37:54.401Z,31.50
2018-01-29T01:38:30.005Z,33.20
2018-01-29T01:39:05.458Z,31.20
2018-01-29T01:39:40.752Z,30.60
2018-01-29T01:40:16.253Z,32.30
2018-01-29T01:40:51.652Z,33.80
2018-01-29T01:41:26.971Z,30.30
2018-01-29T01:42:02.466Z,28.20
2018-01-29T01:42:37.870Z,29.70
2018-01-29T01:43:13.471Z,30.40
2018-01-29T01:43:48.677Z,32.00
2018-01-29T01:44:24.332Z,33.20
2018-01-29T01:44:59.830Z,27.60
2018-01-29T01:45:35.133Z,28.50
2018-01-29T01:46:11.331Z,26.60
2018-01-29T01:46:46.537Z,29.20
2018-01-29T01:47:21.744Z,29.50
2018-01-29T01:47:57.041Z,28.60
2018-01-29T01:48:32.636Z,28.10
2018-01-29T01:49:08.263Z,31.20
2018-01-29T01:49:43.467Z,28.60
2018-01-29T01:50:18.769Z,32.50
2018-01-29T01:50:53.871Z,32.10
2018-01-29T01:51:28.972Z,31.50
2018-01-29T01:52:04.778Z,33.90
2018-01-29T01:52:39.986Z,31.50
2018-01-29T01:53:15.475Z,30.80
2018-01-29T01:53:51.203Z,33.20
2018-01-29T01:54:26.631Z,32.00
2018-01-29T01:55:02.037Z,30.90
2018-01-29T01:55:37.533Z,31.50
2018-01-29T01:56:12.626Z,30.70
2018-01-29T01:56:48.050Z,30.80
2018-01-29T01:57:23.254Z,32.50
2018-01-29T01:57:58.555Z,33.40
2018-01-29T01:58:34.160Z,31.60
2018-01-29T01:59:09.508Z,31.50
2018-01-29T01:59:44.714Z,31.20
2018-01-29T02:00:19.819Z,32.60
2018-01-29T02:00:55.040Z,33.00
2018-01-29T02:01:30.532Z,32.80
2018-01-29T02:02:05.845Z,30.40
2018-01-29T02:02:41.047Z,31.00
2018-01-29T02:03:16.243Z,30.80
2018-01-29T02:03:51.343Z,33.40
2018-01-29T02:04:26.799Z,32.10
2018-01-29T02:05:02.109Z,31.80
2018-01-29T02:05:37.330Z,33.50
2018-01-29T02:06:12.720Z,34.10
2018-01-29T02:06:48.023Z,32.00
2018-01-29T02:07:23.522Z,33.10
2018-01-29T02:07:58.826Z,33.90
2018-01-29T02:08:34.320Z,34.10
2018-01-29T02:09:09.846Z,33.70
2018-01-29T02:09:45.290Z,31.10
2018-01-29T02:10:20.696Z,30.60
2018-01-29T02:10:55.897Z,32.90
2018-01-29T02:11:31.491Z,30.90
2018-01-29T02:12:06.891Z,31.10
2018-01-29T02:12:42.582Z,30.40
2018-01-29T02:13:17.978Z,28.40
2018-01-29T02:13:53.373Z,28.80
2018-01-29T02:14:28.902Z,32.30
2018-01-29T02:15:04.246Z,33.00
2018-01-29T02:15:40.055Z,29.10
2018-01-29T02:16:15.451Z,26.90
2018-01-29T02:16:51.046Z,27.70
2018-01-29T02:17:26.641Z,34.20
2018-01-29T02:18:02.029Z,33.60
2018-01-29T02:18:37.442Z,32.00
2018-01-29T02:19:12.736Z,31.00
2018-01-29T02:19:48.052Z,28.90
2018-01-29T02:20:23.493Z,28.70
2018-01-29T02:20:58.846Z,29.90
2018-01-29T02:21:34.243Z,28.80
2018-01-29T02:22:09.547Z,28.50
2018-01-29T02:22:44.833Z,27.70
2018-01-29T02:23:20.231Z,25.70
2018-01-29T02:23:55.630Z,25.00
2018-01-29T02:24:30.949Z,25.10
2018-01-29T02:25:06.248Z,30.50
2018-01-29T02:25:41.348Z,30.00
2018-01-29T02:26:16.840Z,28.00
2018-01-29T02:26:52.239Z,30.30
2018-01-29T02:27:27.339Z,27.30
2018-01-29T02:28:02.770Z,25.30
2018-01-29T02:28:38.145Z,22.90
2018-01-29T02:29:13.537Z,24.30
2018-01-29T02:29:48.893Z,25.80
2018-01-29T02:30:24.407Z,26.20
2018-01-29T02:30:59.805Z,24.80
2018-01-29T02:31:35.299Z,22.00
2018-01-29T02:32:10.694Z,24.70
2018-01-29T02:32:45.986Z,26.40
2018-01-29T02:33:21.079Z,22.10
2018-01-29T02:33:56.281Z,22.60
2018-01-29T02:34:31.605Z,22.80
2018-01-29T02:35:06.931Z,22.10
2018-01-29T02:35:42.026Z,20.80
2018-01-29T02:36:17.418Z,22.90
2018-01-29T02:36:53.023Z,22.00
2018-01-29T02:37:28.211Z,20.30
2018-01-29T02:38:03.614Z,24.70
2018-01-29T02:38:38.810Z,22.00
2018-01-29T02:39:14.101Z,20.70
2018-01-29T02:39:49.335Z,23.10
2018-01-29T02:40:24.871Z,24.50
2018-01-29T02:41:00.271Z,23.00
2018-01-29T02:41:35.364Z,23.80
2018-01-29T02:42:10.766Z,24.80
2018-01-29T02:42:45.974Z,21.60
2018-01-29T02:43:21.465Z,24.20
2018-01-29T02:43:56.677Z,24.10
2018-01-29T02:44:31.971Z,20.70
2018-01-29T02:45:07.691Z,21.60
2018-01-29T02:45:43.014Z,21.30
2018-01-29T02:46:18.430Z,21.90
2018-01-29T02:46:53.624Z,22.90
2018-01-29T02:47:29.127Z,20.50
2018-01-29T02:48:04.424Z,24.30
2018-01-29T02:48:39.819Z,23.00
2018-01-29T02:49:15.117Z,21.90
2018-01-29T02:49:50.238Z,22.40
2018-01-29T02:50:25.538Z,21.20
2018-01-29T02:51:00.846Z,20.20
2018-01-29T02:51:36.247Z,20.80
2018-01-29T02:52:11.637Z,19.70
2018-01-29T02:52:46.841Z,19.90
2018-01-29T02:53:22.240Z,20.80
2018-01-29T02:53:57.447Z,22.60
2018-01-29T02:54:32.747Z,20.70
2018-01-29T02:55:08.057Z,18.10
2018-01-29T02:55:43.258Z,20.30
2018-01-29T02:56:18.653Z,19.20
2018-01-29T02:56:53.846Z,20.50
2018-01-29T02:57:29.545Z,19.40
2018-01-29T02:58:04.729Z,21.80
2018-01-29T02:58:40.134Z,26.00
2018-01-29T02:59:15.621Z,24.60
2018-01-29T02:59:50.640Z,21.60
2018-01-29T03:00:25.769Z,20.10
2018-01-29T03:01:01.365Z,18.80
2018-01-29T03:01:36.667Z,20.20
2018-01-29T03:02:12.058Z,21.00
2018-01-29T03:02:47.658Z,18.70
2018-01-29T03:03:22.846Z,18.10
2018-01-29T03:03:58.042Z,17.80
2018-01-29T03:04:33.335Z,16.80
2018-01-29T03:05:08.755Z,16.20
2018-01-29T03:05:44.079Z,17.60
2018-01-29T03:06:19.268Z,19.60
2018-01-29T03:06:54.573Z,19.40
2018-01-29T03:07:29.570Z,19.80
2018-01-29T03:08:04.769Z,17.40
2018-01-29T03:08:39.970Z,21.60
2018-01-29T03:09:15.266Z,21.70
2018-01-29T03:09:50.600Z,20.20
2018-01-29T03:10:25.895Z,18.70
2018-01-29T03:11:01.221Z,20.60
2018-01-29T03:11:36.717Z,19.50
2018-01-29T03:12:12.317Z,18.60
2018-01-29T03:12:47.416Z,19.50
2018-01-29T03:13:22.618Z,18.60
2018-01-29T03:13:58.113Z,18.70
2018-01-29T03:14:33.508Z,21.20
2018-01-29T03:15:08.935Z,19.50
2018-01-29T03:15:44.535Z,18.80
2018-01-29T03:16:20.058Z,19.10
2018-01-29T03:16:55.355Z,16.20
2018-01-29T03:17:30.464Z,17.50
2018-01-29T03:18:05.761Z,17.00
2018-01-29T03:18:40.960Z,17.20
2018-01-29T03:19:16.553Z,17.60
2018-01-29T03:19:51.848Z,19.90
2018-01-29T03:20:27.170Z,21.00
2018-01-29T03:21:02.476Z,17.60
2018-01-29T03:21:37.705Z,16.00
2018-01-29T03:22:13.004Z,18.40
2018-01-29T03:22:48.217Z,19.20
2018-01-29T03:23:23.609Z,16.00
2018-01-29T03:23:59.002Z,16.10
2018-01-29T03:24:34.298Z,17.70
2018-01-29T03:25:09.517Z,17.70
2018-01-29T03:25:44.923Z,15.60
2018-01-29T03:26:20.316Z,17.70
2018-01-29T03:26:55.732Z,17.90
2018-01-29T03:27:31.032Z,17.70
2018-01-29T03:28:06.556Z,18.70
2018-01-29T03:28:41.841Z,18.50
2018-01-29T03:29:17.435Z,17.90
2018-01-29T03:29:52.829Z,17.30
2018-01-29T03:30:28.067Z,16.10
2018-01-29T03:31:03.359Z,16.60
2018-01-29T03:31:38.561Z,18.30
2018-01-29T03:32:13.879Z,19.40
2018-01-29T03:32:48.970Z,18.40
2018-01-29T03:33:24.263Z,17.90
2018-01-29T03:33:59.662Z,19.10
2018-01-29T03:34:34.960Z,17.80
2018-01-29T03:35:10.658Z,16.30
2018-01-29T03:35:45.874Z,16.90
2018-01-29T03:36:21.158Z,16.20
2018-01-29T03:36:56.454Z,17.70
2018-01-29T03:37:31.573Z,16.40
2018-01-29T03:38:06.763Z,15.00
2018-01-29T03:38:41.965Z,17.40
2018-01-29T03:39:17.353Z,17.70
2018-01-29T03:39:52.651Z,16.40
2018-01-29T03:40:28.145Z,15.60
2018-01-29T03:41:03.579Z,14.90
2018-01-29T03:41:38.994Z,15.00
2018-01-29T03:42:14.293Z,18.60
2018-01-29T03:42:49.925Z,19.20
2018-01-29T03:43:25.120Z,21.00
2018-01-29T03:44:00.622Z,17.70
2018-01-29T03:44:36.332Z,14.40
2018-01-29T03:45:12.141Z,16.30
2018-01-29T03:45:47.537Z,16.90
2018-01-29T03:46:22.774Z,17.90
2018-01-29T03:46:57.772Z,17.00
2018-01-29T03:47:32.972Z,16.60
2018-01-29T03:48:08.082Z,18.00
2018-01-29T03:48:43.382Z,17.40
2018-01-29T03:49:18.781Z,16.70
2018-01-29T03:49:54.179Z,16.40
2018-01-29T03:50:29.374Z,16.10
2018-01-29T03:51:04.479Z,15.20
2018-01-29T03:51:40.005Z,14.60
2018-01-29T03:52:15.602Z,16.30
2018-01-29T03:52:51.136Z,18.60
2018-01-29T03:53:26.499Z,16.90
2018-01-29T03:54:01.811Z,17.00
2018-01-29T03:54:37.109Z,16.00
2018-01-29T03:55:12.406Z,14.60
2018-01-29T03:55:47.709Z,17.80
2018-01-29T03:56:23.108Z,16.30
2018-01-29T03:56:58.437Z,14.70
2018-01-29T03:57:33.663Z,17.20
2018-01-29T03:58:08.960Z,18.60
2018-01-29T03:58:44.372Z,19.60
2018-01-29T03:59:19.568Z,15.50
2018-01-29T03:59:54.968Z,15.90
2018-01-29T04:00:30.564Z,15.40
2018-01-29T04:01:06.079Z,14.80
2018-01-29T04:01:41.268Z,13.90
2018-01-29T04:02:16.505Z,15.40
2018-01-29T04:02:51.922Z,17.30
2018-01-29T04:03:27.323Z,17.70
2018-01-29T04:04:02.536Z,18.00
2018-01-29T04:04:37.837Z,16.90
2018-01-29T04:05:13.329Z,18.50
2018-01-29T04:05:48.625Z,17.20
2018-01-29T04:06:23.920Z,16.10
2018-01-29T04:06:59.417Z,16.10
2018-01-29T04:07:34.753Z,17.20
2018-01-29T04:08:10.276Z,17.30
2018-01-29T04:08:45.570Z,17.80
2018-01-29T04:09:20.880Z,17.20
2018-01-29T04:09:56.080Z,16.80
2018-01-29T04:10:31.396Z,17.20
2018-01-29T04:11:06.693Z,17.30
2018-01-29T04:11:42.194Z,16.70
2018-01-29T04:12:17.794Z,15.90
2018-01-29T04:12:53.221Z,16.50
2018-01-29T04:13:28.738Z,17.70
2018-01-29T04:14:03.931Z,18.10
2018-01-29T04:14:39.533Z,18.20
2018-01-29T04:15:14.836Z,18.00
2018-01-29T04:15:50.041Z,15.90
2018-01-29T04:16:25.438Z,18.00
2018-01-29T04:17:00.564Z,16.40
2018-01-29T04:17:36.063Z,17.50
2018-01-29T04:18:11.699Z,17.10
2018-01-29T04:18:46.998Z,16.50
2018-01-29T04:19:22.401Z,16.90
2018-01-29T04:19:57.912Z,17.20
2018-01-29T04:20:33.417Z,18.70
2018-01-29T04:21:09.019Z,17.50
2018-01-29T04:21:44.411Z,17.00
2018-01-29T04:22:19.610Z,16.90
2018-01-29T04:22:54.938Z,16.30
2018-01-29T04:23:30.064Z,17.20
2018-01-29T04:24:05.397Z,17.40
2018-01-29T04:24:40.699Z,15.80
2018-01-29T04:25:16.012Z,19.30
2018-01-29T04:25:51.315Z,18.10
2018-01-29T04:26:26.518Z,16.40
2018-01-29T04:27:02.111Z,18.30
2018-01-29T04:27:37.716Z,19.00
2018-01-29T04:28:13.072Z,17.20
2018-01-29T04:28:48.392Z,19.10
2018-01-29T04:29:23.598Z,21.00
2018-01-29T04:29:58.694Z,21.20
2018-01-29T04:30:33.799Z,18.50
2018-01-29T04:31:09.202Z,15.70
2018-01-29T04:31:44.625Z,16.90
2018-01-29T04:32:20.024Z,18.80
2018-01-29T04:32:55.026Z,18.80
2018-01-29T04:33:30.597Z,18.60
2018-01-29T04:34:05.784Z,19.10
2018-01-29T04:34:40.896Z,20.00
2018-01-29T04:35:16.295Z,18.20
2018-01-29T04:35:51.699Z,19.10
2018-01-29T04:36:27.115Z,20.10
2018-01-29T04:37:02.526Z,18.90
2018-01-29T04:37:37.928Z,20.50
2018-01-29T04:38:13.229Z,22.20
2018-01-29T04:38:48.253Z,19.30
2018-01-29T04:39:23.378Z,21.20
2018-01-29T04:39:59.080Z,19.30
2018-01-29T04:40:34.084Z,21.80
2018-01-29T04:41:09.390Z,20.00
2018-01-29T04:41:44.700Z,19.70
2018-01-29T04:42:20.300Z,21.50
2018-01-29T04:42:55.697Z,20.20
2018-01-29T04:43:31.197Z,21.50
2018-01-29T04:44:06.630Z,21.50
2018-01-29T04:44:41.969Z,20.70
2018-01-29T04:45:17.459Z,22.60
2018-01-29T04:45:52.661Z,22.80
2018-01-29T04:46:28.060Z,19.80
2018-01-29T04:47:03.657Z,21.00
2018-01-29T04:47:39.157Z,22.90
2018-01-29T04:48:14.571Z,18.70
2018-01-29T04:48:49.865Z,24.40
2018-01-29T04:49:25.071Z,27.30
2018-01-29T04:50:00.202Z,20.30
2018-01-29T04:50:35.406Z,16.90
2018-01-29T04:51:10.706Z,17.60
2018-01-29T04:51:45.702Z,21.80
2018-01-29T04:52:21.305Z,21.50
2018-01-29T04:52:56.616Z,18.70
2018-01-29T04:53:31.935Z,18.70
2018-01-29T04:54:07.540Z,19.20
2018-01-29T04:54:43.139Z,22.80
2018-01-29T04:55:18.968Z,24.40
2018-01-29T04:55:54.371Z,21.70
2018-01-29T04:56:29.672Z,20.30
2018-01-29T04:57:05.191Z,19.60
2018-01-29T04:57:40.581Z,17.70
2018-01-29T04:58:15.679Z,20.40
2018-01-29T04:58:51.101Z,19.30
2018-01-29T04:59:26.601Z,20.10
2018-01-29T05:00:01.705Z,18.90
2018-01-29T05:00:37.545Z,18.40
2018-01-29T05:01:12.955Z,17.50
2018-01-29T05:01:48.348Z,20.70
2018-01-29T05:02:23.950Z,20.70
2018-01-29T05:02:59.249Z,18.50
2018-01-29T05:03:34.450Z,20.10
2018-01-29T05:04:09.776Z,18.10
2018-01-29T05:04:45.071Z,21.90
2018-01-29T05:05:20.571Z,23.00
2018-01-29T05:05:56.201Z,21.00
2018-01-29T05:06:31.504Z,20.40
2018-01-29T05:07:07.006Z,19.80
2018-01-29T05:07:42.503Z,21.10
2018-01-29T05:08:17.811Z,20.10
2018-01-29T05:08:53.116Z,21.30
2018-01-29T05:09:28.443Z,21.90
2018-01-29T05:10:03.851Z,22.30
2018-01-29T05:10:39.360Z,23.70
2018-01-29T05:11:14.691Z,26.90
2018-01-29T05:11:49.902Z,26.00
2018-01-29T05:12:25.099Z,20.60
2018-01-29T05:13:00.101Z,22.40
2018-01-29T05:13:35.504Z,22.40
2018-01-29T05:14:10.712Z,21.10
2018-01-29T05:14:45.917Z,19.00
2018-01-29T05:15:21.215Z,20.10
2018-01-29T05:15:56.630Z,21.60
2018-01-29T05:16:32.059Z,22.70
2018-01-29T05:17:07.542Z,21.40
2018-01-29T05:17:42.628Z,21.40
2018-01-29T05:18:17.925Z,23.30
2018-01-29T05:18:53.144Z,23.80
2018-01-29T05:19:28.342Z,19.10
2018-01-29T05:20:03.742Z,21.30
2018-01-29T05:20:39.238Z,23.10
2018-01-29T05:21:15.145Z,18.50
2018-01-29T05:21:50.370Z,16.80
2018-01-29T05:22:25.867Z,20.00
2018-01-29T05:23:01.264Z,21.90
2018-01-29T05:23:36.870Z,21.80
2018-01-29T05:24:12.403Z,21.40
2018-01-29T05:24:47.501Z,20.30
2018-01-29T05:25:22.896Z,20.00
2018-01-29T05:25:58.197Z,20.70
2018-01-29T05:26:33.492Z,23.80
2018-01-29T05:27:08.917Z,25.30
2018-01-29T05:27:44.422Z,22.60
2018-01-29T05:28:19.625Z,24.50
2018-01-29T05:28:55.248Z,20.50
2018-01-29T05:29:31.198Z,18.50
2018-01-29T05:30:06.393Z,19.90
2018-01-29T05:30:42.788Z,20.10
2018-01-29T05:31:17.898Z,20.50
2018-01-29T05:31:53.397Z,21.60
2018-01-29T05:32:29.021Z,17.70
2018-01-29T05:33:04.256Z,20.60
2018-01-29T05:33:39.554Z,18.60
2018-01-29T05:34:14.770Z,21.10
2018-01-29T05:34:49.873Z,21.70
2018-01-29T05:35:25.064Z,20.50
2018-01-29T05:36:00.257Z,20.50
2018-01-29T05:36:35.563Z,22.80
2018-01-29T05:37:10.962Z,21.10
2018-01-29T05:37:46.404Z,15.50
2018-01-29T05:38:22.026Z,20.40
2018-01-29T05:38:57.316Z,18.30
2018-01-29T05:39:32.526Z,18.80
2018-01-29T05:40:07.853Z,19.50
2018-01-29T05:40:43.133Z,18.40
2018-01-29T05:41:18.340Z,16.10
2018-01-29T05:41:53.937Z,19.80
2018-01-29T05:42:29.643Z,18.60
2018-01-29T05:43:04.868Z,16.30
2018-01-29T05:43:40.068Z,17.30
2018-01-29T05:44:15.389Z,20.30
2018-01-29T05:44:50.786Z,16.90
2018-01-29T05:45:25.983Z,16.40
2018-01-29T05:46:01.282Z,21.70
2018-01-29T05:46:36.585Z,24.50
2018-01-29T05:47:11.992Z,21.60
2018-01-29T05:47:46.990Z,18.10
2018-01-29T05:48:22.716Z,17.50
2018-01-29T05:48:58.038Z,18.40
2018-01-29T05:49:33.557Z,19.80
2018-01-29T05:50:08.952Z,23.10
2018-01-29T05:50:44.253Z,22.40
2018-01-29T05:51:19.657Z,19.80
2018-01-29T05:51:54.962Z,24.60
2018-01-29T05:52:30.561Z,22.30
2018-01-29T05:53:05.784Z,25.00
2018-01-29T05:53:41.326Z,21.60
2018-01-29T05:54:16.526Z,19.70
2018-01-29T05:54:52.258Z,18.30
2018-01-29T05:55:27.949Z,19.40
2018-01-29T05:56:03.152Z,22.90
2018-01-29T05:56:38.851Z,29.60
2018-01-29T05:57:14.149Z,28.20
2018-01-29T05:57:49.644Z,19.70
2018-01-29T05:58:24.941Z,18.40
2018-01-29T05:59:00.269Z,21.20
2018-01-29T05:59:35.572Z,22.70
2018-01-29T06:00:10.997Z,19.40
2018-01-29T06:00:46.489Z,20.00
2018-01-29T06:01:21.794Z,21.30
2018-01-29T06:01:57.093Z,22.40
2018-01-29T06:02:32.203Z,18.90
2018-01-29T06:03:07.404Z,17.20
2018-01-29T06:03:42.704Z,21.20
2018-01-29T06:04:18.236Z,19.90
2018-01-29T06:04:53.637Z,18.70
2018-01-29T06:05:28.937Z,15.90
2018-01-29T06:06:04.241Z,17.80
2018-01-29T06:06:39.339Z,17.60
2018-01-29T06:07:14.444Z,20.90
2018-01-29T06:07:49.640Z,20.20
2018-01-29T06:08:24.891Z,17.40
2018-01-29T06:09:00.131Z,21.80
2018-01-29T06:09:35.547Z,22.20
2018-01-29T06:10:11.143Z,20.20
2018-01-29T06:10:46.344Z,16.70
2018-01-29T06:11:21.950Z,19.90
2018-01-29T06:11:57.140Z,22.50
2018-01-29T06:12:32.639Z,20.60
2018-01-29T06:13:08.033Z,17.90
2018-01-29T06:13:43.426Z,20.40
2018-01-29T06:14:18.639Z,18.00
2018-01-29T06:14:53.889Z,23.10
2018-01-29T06:15:29.309Z,20.80
2018-01-29T06:16:04.311Z,19.10
2018-01-29T06:16:39.508Z,19.50
2018-01-29T06:17:14.603Z,19.10
2018-01-29T06:17:50.102Z,15.80
2018-01-29T06:18:25.424Z,19.50
2018-01-29T06:19:00.922Z,20.50
2018-01-29T06:19:36.322Z,18.90
2018-01-29T06:20:11.873Z,20.70
2018-01-29T06:20:47.483Z,15.80
2018-01-29T06:21:22.570Z,17.40
2018-01-29T06:21:58.061Z,20.30
2018-01-29T06:22:33.403Z,18.90
2018-01-29T06:23:08.792Z,17.80
2018-01-29T06:23:44.290Z,19.90
2018-01-29T06:24:19.679Z,18.10
2018-01-29T06:24:54.985Z,22.50
2018-01-29T06:25:30.437Z,20.20
2018-01-29T06:26:05.938Z,21.40
2018-01-29T06:26:41.440Z,22.80
2018-01-29T06:27:16.731Z,23.00
2018-01-29T06:27:52.124Z,23.90
2018-01-29T06:28:27.613Z,26.60
2018-01-29T06:29:03.212Z,22.60
2018-01-29T06:29:38.500Z,22.30
2018-01-29T06:30:13.705Z,22.40
2018-01-29T06:30:49.358Z,20.30
2018-01-29T06:31:24.548Z,17.10
2018-01-29T06:32:00.152Z,20.20
2018-01-29T06:32:35.448Z,17.80
2018-01-29T06:33:10.576Z,15.80
2018-01-29T06:33:45.867Z,18.50
2018-01-29T06:34:21.094Z,21.00
2018-01-29T06:34:56.493Z,24.90
2018-01-29T06:35:32.215Z,23.90
2018-01-29T06:36:07.438Z,22.40
2018-01-29T06:36:42.652Z,19.50
2018-01-29T06:37:17.845Z,19.50
2018-01-29T06:37:53.062Z,20.80
2018-01-29T06:38:28.257Z,17.60
2018-01-29T06:39:03.681Z,23.50
2018-01-29T06:39:38.974Z,19.30
2018-01-29T06:40:14.300Z,24.30
2018-01-29T06:40:49.696Z,23.50
2018-01-29T06:41:25.148Z,19.50
2018-01-29T06:42:00.473Z,19.30
2018-01-29T06:42:36.251Z,24.00
2018-01-29T06:43:12.656Z,20.80
2018-01-29T06:43:48.083Z,23.20
2018-01-29T06:44:23.381Z,23.20
2018-01-29T06:44:59.096Z,20.20
2018-01-29T06:45:34.793Z,20.50
2018-01-29T06:46:10.128Z,23.20
2018-01-29T06:46:45.244Z,21.40
2018-01-29T06:47:20.472Z,17.70
2018-01-29T06:47:55.763Z,27.60
2018-01-29T06:48:30.985Z,23.60
2018-01-29T06:49:06.481Z,15.90
2018-01-29T06:49:42.208Z,20.00
2018-01-29T06:50:17.496Z,24.40
2018-01-29T06:50:53.151Z,21.40
2018-01-29T06:51:28.616Z,18.60
2018-01-29T06:52:04.072Z,18.60
2018-01-29T06:52:39.273Z,18.10
2018-01-29T06:53:14.946Z,18.00
2018-01-29T06:53:50.192Z,22.00
2018-01-29T06:54:25.916Z,21.90
2018-01-29T06:55:01.408Z,19.50
2018-01-29T06:55:36.937Z,17.50
2018-01-29T06:56:12.479Z,19.20
2018-01-29T06:56:47.753Z,17.50
2018-01-29T06:57:22.976Z,18.90
2018-01-29T06:57:58.297Z,18.90
2018-01-29T06:58:33.786Z,18.40
2018-01-29T06:59:08.901Z,23.30
2018-01-29T06:59:44.492Z,22.90
2018-01-29T07:00:19.919Z,20.30
2018-01-29T07:00:55.310Z,17.50
2018-01-29T07:01:30.619Z,22.00
2018-01-29T07:02:06.058Z,21.60
2018-01-29T07:02:41.248Z,18.30
2018-01-29T07:03:16.540Z,22.00
2018-01-29T07:03:51.849Z,19.00
2018-01-29T07:04:27.233Z,21.20
2018-01-29T07:05:02.464Z,24.00
2018-01-29T07:05:38.037Z,24.60
2018-01-29T07:06:13.256Z,20.30
2018-01-29T07:06:48.447Z,20.50
2018-01-29T07:07:23.798Z,17.50
2018-01-29T07:07:59.281Z,20.80
2018-01-29T07:08:34.991Z,16.80
2018-01-29T07:09:10.376Z,19.00
2018-01-29T07:09:45.987Z,22.40
2018-01-29T07:10:21.367Z,19.50
2018-01-29T07:10:56.523Z,18.30
2018-01-29T07:11:31.802Z,21.50
2018-01-29T07:12:07.316Z,25.10
2018-01-29T07:12:42.624Z,16.00
2018-01-29T07:13:18.261Z,21.10
2018-01-29T07:13:53.539Z,20.70
2018-01-29T07:14:28.846Z,19.50
2018-01-29T07:15:04.029Z,20.50
2018-01-29T07:15:39.255Z,20.60
2018-01-29T07:16:14.533Z,23.40
2018-01-29T07:16:49.642Z,25.70
2018-01-29T07:17:25.127Z,24.60
2018-01-29T07:18:00.577Z,26.20
2018-01-29T07:18:36.264Z,24.20
2018-01-29T07:19:11.576Z,25.90
2018-01-29T07:19:46.771Z,22.80
2018-01-29T07:20:21.977Z,23.40
2018-01-29T07:20:57.056Z,24.30
2018-01-29T07:21:32.371Z,24.10
2018-01-29T07:22:08.154Z,21.80
2018-01-29T07:22:43.375Z,25.70
2018-01-29T07:23:18.689Z,26.10
2018-01-29T07:23:54.001Z,20.50
2018-01-29T07:24:29.198Z,24.30
2018-01-29T07:25:04.513Z,21.10
2018-01-29T07:25:39.903Z,19.70
2018-01-29T07:26:15.306Z,22.20
2018-01-29T07:26:50.795Z,23.50
2018-01-29T07:27:26.119Z,23.30
2018-01-29T07:28:01.129Z,22.50
2018-01-29T07:28:36.452Z,21.40
2018-01-29T07:29:11.639Z,25.20
2018-01-29T07:29:46.757Z,27.60
2018-01-29T07:30:22.278Z,19.30
2018-01-29T07:30:57.301Z,18.40
2018-01-29T07:31:32.584Z,30.20
2018-01-29T07:32:07.893Z,32.20
2018-01-29T07:32:43.374Z,24.30
2018-01-29T07:33:20.322Z,27.60
2018-01-29T07:33:55.806Z,26.20
2018-01-29T07:34:31.122Z,21.10
2018-01-29T07:35:06.514Z,19.30
2018-01-29T07:35:42.121Z,22.60